Time;durP1;ratioP1;P1;durP2;ratioP2;P2;SDS_P1;SDS_P2;PMS_P1;PMS_P2;Temp;Humidity;BMP_temperature;BMP_pressure;BME280_temperature;BME280_humidity;BME280_pressure;Samples;Min_cycle;Max_cycle;Signal;HPM_P1;HPM_P2
2023/10/14 00:02:08;;;;;;;5.80;2.30;;;;;;;13.00;100.00;99495.72;7362073;19;20893;-44
2023/10/14 00:04:38;;;;;;;4.97;2.03;;;;;;;12.89;100.00;99508.56;7385640;19;20402;-42
2023/10/14 00:07:08;;;;;;;4.43;1.57;;;;;;;12.60;100.00;99454.72;7361550;19;20523;-43
2023/10/14 00:09:49;;;;;;;23.07;8.73;;;;;;;12.47;100.00;99433.88;7386811;19;20750;-42
2023/10/14 00:12:20;;;;;;;7.80;3.87;;;;;;;12.41;100.00;99423.44;7362133;19;20479;-42
2023/10/14 00:14:53;;;;;;;5.20;2.57;;;;;;;12.23;100.00;99393.03;7383801;19;20384;-42
2023/10/14 00:17:25;;;;;;;6.03;2.80;;;;;;;12.09;100.00;99395.41;7364963;19;20415;-42
2023/10/14 00:19:55;;;;;;;10.93;4.03;;;;;;;12.01;100.00;99393.56;7386148;19;20419;-45
2023/10/14 00:22:29;;;;;;;5.50;0.80;;;;;;;11.92;100.00;99408.97;7360509;19;21200;-42
2023/10/14 00:25:01;;;;;;;11.90;4.70;;;;;;;11.95;100.00;99390.03;7387190;19;20399;-43
2023/10/14 00:27:33;;;;;;;5.33;2.50;;;;;;;11.88;100.00;99376.16;7363489;19;20427;-42
2023/10/14 00:30:09;;;;;;;15.20;7.13;;;;;;;11.82;100.00;99386.41;7388732;19;20410;-41
2023/10/14 00:32:39;;;;;;;1.97;0.87;;;;;;;11.86;100.00;99377.84;7363321;19;20446;-42
2023/10/14 00:35:11;;;;;;;13.20;4.93;;;;;;;11.87;100.00;99364.97;7387832;19;21528;-40
2023/10/14 00:37:40;;;;;;;14.70;1.67;;;;;;;11.82;100.00;99355.38;7364113;19;20422;-42
2023/10/14 00:40:22;;;;;;;6.60;2.63;;;;;;;11.75;100.00;99360.47;7385620;19;20759;-41
2023/10/14 00:42:55;;;;;;;11.97;4.63;;;;;;;11.76;100.00;99358.75;7361167;19;20542;-43
2023/10/14 00:45:26;;;;;;;10.67;4.20;;;;;;;11.74;100.00;99368.19;7385951;19;20788;-44
2023/10/14 00:47:56;;;;;;;3.53;1.20;;;;;;;11.73;100.00;99380.25;7363284;19;20424;-42
2023/10/14 00:50:33;;;;;;;4.30;1.20;;;;;;;11.71;100.00;99384.53;7386667;19;21050;-45
2023/10/14 00:53:05;;;;;;;3.40;1.80;;;;;;;11.68;100.00;99389.66;7362626;19;20519;-43
2023/10/14 00:55:46;;;;;;;3.20;1.83;;;;;;;11.66;100.00;99399.09;7386523;19;20399;-43
2023/10/14 00:58:21;;;;;;;6.00;1.60;;;;;;;11.58;100.00;99388.63;7363597;19;20798;-43
2023/10/14 01:01:05;;;;;;;9.17;3.00;;;;;;;11.61;100.00;99403.31;7364318;19;20403;-45
2023/10/14 01:03:36;;;;;;;4.70;1.40;;;;;;;11.57;100.00;99396.34;7383301;19;20435;-42
2023/10/14 01:06:20;;;;;;;4.87;1.57;;;;;;;11.63;100.00;99401.63;7363867;19;20447;-42
2023/10/14 01:09:10;;;;;;;13.10;5.07;;;;;;;11.70;100.00;99387.94;7384392;19;20407;-42
2023/10/14 01:11:42;;;;;;;6.87;1.30;;;;;;;11.63;100.00;99398.19;7361260;19;20498;-41
2023/10/14 01:14:14;;;;;;;6.60;2.10;;;;;;;11.61;100.00;99408.50;7390718;19;20449;-45
2023/10/14 01:16:47;;;;;;;4.47;1.70;;;;;;;11.59;100.00;99417.94;7368573;19;20427;-41
2023/10/14 01:19:21;;;;;;;5.63;1.40;;;;;;;11.63;100.00;99406.78;7391623;19;20445;-41
2023/10/14 01:21:53;;;;;;;5.60;1.47;;;;;;;11.57;100.00;99404.09;7366694;19;20482;-43
2023/10/14 01:24:30;;;;;;;5.90;1.63;;;;;;;11.52;100.00;99404.03;7393901;19;20766;-44
2023/10/14 01:27:03;;;;;;;6.53;1.53;;;;;;;11.54;100.00;99404.06;7372084;19;20831;-42
2023/10/14 01:29:39;;;;;;;12.57;1.80;;;;;;;11.56;100.00;99410.13;7397539;19;20478;-44
2023/10/14 01:32:37;;;;;;;6.63;1.90;;;;;;;11.54;100.00;99414.41;7375466;19;20490;-42
2023/10/14 01:35:24;;;;;;;8.37;1.60;;;;;;;11.55;100.00;99406.69;7398701;19;20414;-41
2023/10/14 01:37:54;;;;;;;5.23;1.33;;;;;;;11.58;100.00;99409.31;7375938;19;20463;-43
2023/10/14 01:40:35;;;;;;;10.40;2.97;;;;;;;11.64;100.00;99407.66;7401990;19;20431;-43
2023/10/14 01:43:08;;;;;;;5.17;1.70;;;;;;;11.59;100.00;99412.78;7376362;19;20447;-45
2023/10/14 01:45:48;;;;;;;8.80;1.30;;;;;;;11.53;100.00;99417.84;7394780;19;20380;-45
2023/10/14 01:48:21;;;;;;;6.93;1.30;;;;;;;11.53;100.00;99420.41;7377729;19;20443;-41
2023/10/14 01:50:55;;;;;;;5.10;1.60;;;;;;;11.56;100.00;99410.13;7373917;19;20379;-42
2023/10/14 01:53:27;;;;;;;11.47;1.77;;;;;;;11.56;100.00;99415.28;7393400;19;20419;-42
2023/10/14 01:56:01;;;;;;;9.73;1.27;;;;;;;11.56;100.00;99415.28;7372090;19;20776;-45
2023/10/14 01:58:32;;;;;;;6.33;1.33;;;;;;;11.57;100.00;99422.19;7395859;19;20386;-42
2023/10/14 02:01:14;;;;;;;9.50;1.67;;;;;;;11.51;100.00;99401.41;7371425;19;20391;-43
2023/10/14 02:03:47;;;;;;;7.20;1.37;;;;;;;11.56;100.00;99394.63;7392563;19;20774;-42
2023/10/14 02:06:20;;;;;;;6.03;1.07;;;;;;;11.52;100.00;99406.63;7372030;19;20407;-42
2023/10/14 02:08:51;;;;;;;10.30;1.93;;;;;;;11.53;100.00;99407.50;7392972;19;20380;-41
2023/10/14 02:11:24;;;;;;;10.30;2.77;;;;;;;11.52;100.00;99414.38;7374715;19;20444;-43
2023/10/14 02:13:54;;;;;;;8.93;1.23;;;;;;;11.46;100.00;99419.44;7392708;19;21022;-42
2023/10/14 02:16:25;;;;;;;7.50;1.77;;;;;;;11.50;100.00;99410.03;7373904;19;20966;-43
2023/10/14 02:19:16;;;;;;;9.50;1.70;;;;;;;11.47;100.00;99422.06;7396953;19;20438;-42
2023/10/14 02:21:57;;;;;;;12.90;1.50;;;;;;;11.37;100.00;99432.22;7370954;19;20419;-44
2023/10/14 02:24:28;;;;;;;6.00;1.17;;;;;;;11.33;100.00;99482.91;7395921;19;20383;-41
2023/10/14 02:27:06;;;;;;;9.50;1.70;;;;;;;11.37;100.00;99494.19;7372958;19;20399;-43
2023/10/14 02:29:36;;;;;;;4.67;1.43;;;;;;;11.31;100.00;99520.75;7393157;19;20405;-43
2023/10/14 02:32:06;;;;;;;5.73;1.40;;;;;;;11.26;100.00;99530.09;7370686;19;20395;-42
2023/10/14 02:34:36;;;;;;;13.07;1.53;;;;;;;11.07;100.00;99556.44;7392992;19;20387;-44
2023/10/14 02:37:07;;;;;;;8.63;1.80;;;;;;;11.09;100.00;99582.28;7372418;19;20999;-41
2023/10/14 02:39:37;;;;;;;7.70;1.60;;;;;;;11.12;100.00;99608.16;7393058;19;20751;-42
2023/10/14 02:42:09;;;;;;;3.33;1.00;;;;;;;11.03;100.00;99641.53;7370251;19;20403;-42
2023/10/14 02:44:51;;;;;;;4.63;1.00;;;;;;;10.94;100.00;99663.69;7399094;19;20424;-45
2023/10/14 02:47:27;;;;;;;2.90;1.10;;;;;;;10.88;100.00;99663.53;7371247;19;20432;-44
2023/10/14 02:50:05;;;;;;;7.87;1.47;;;;;;;10.86;100.00;99674.69;7397879;19;20758;-45
2023/10/14 02:52:38;;;;;;;12.73;1.40;;;;;;;10.79;100.00;99684.88;7369764;19;20430;-43
2023/10/14 02:55:25;;;;;;;6.07;1.93;;;;;;;10.72;100.00;99684.69;7395240;19;20388;-43
2023/10/14 02:58:03;;;;;;;5.43;1.60;;;;;;;10.64;100.00;99669.91;7371201;19;20399;-42
2023/10/14 03:00:32;;;;;;;2.77;1.10;;;;;;;10.63;100.00;99673.31;7392218;19;20387;-44
2023/10/14 03:03:09;;;;;;;3.60;1.77;;;;;;;10.55;100.00;99679.13;7369721;19;20455;-42
2023/10/14 03:05:51;;;;;;;3.53;0.90;;;;;;;10.55;100.00;99690.28;7373636;19;20951;-42
2023/10/14 03:08:22;;;;;;;9.07;1.20;;;;;;;10.53;100.00;99690.25;7391862;19;20391;-42
2023/10/14 03:10:59;;;;;;;7.23;1.10;;;;;;;10.53;100.00;99697.13;7370073;19;20409;-42
2023/10/14 03:13:33;;;;;;;3.33;1.33;;;;;;;10.54;100.00;99709.19;7391422;19;20754;-44
2023/10/14 03:16:04;;;;;;;7.13;1.30;;;;;;;10.52;100.00;99710.84;7372494;19;20395;-43
2023/10/14 03:18:37;;;;;;;4.13;1.50;;;;;;;10.49;100.00;99732.28;7397508;19;20856;-41
2023/10/14 03:21:09;;;;;;;5.90;1.30;;;;;;;10.40;100.00;99753.50;7368278;19;21006;-43
2023/10/14 03:23:41;;;;;;;8.80;1.40;;;;;;;10.35;100.00;99770.56;7390909;19;20424;-42
2023/10/14 03:26:13;;;;;;;7.63;1.70;;;;;;;10.37;100.00;99771.47;7371880;19;20395;-42
2023/10/14 03:28:50;;;;;;;4.43;1.37;;;;;;;10.42;100.00;99792.25;7390932;19;20387;-43
2023/10/14 03:31:24;;;;;;;5.83;1.13;;;;;;;10.29;100.00;99791.03;7371250;19;20398;-42
2023/10/14 03:33:58;;;;;;;6.13;1.60;;;;;;;10.26;100.00;99799.53;7391127;19;20839;-43
2023/10/14 03:36:31;;;;;;;6.50;1.40;;;;;;;10.24;100.00;99805.47;7369944;19;20982;-45
2023/10/14 03:39:16;;;;;;;5.83;1.20;;;;;;;10.24;100.00;99802.91;7396097;19;20981;-42
2023/10/14 03:41:51;;;;;;;3.10;0.90;;;;;;;10.21;100.00;99808.84;7368519;19;21331;-43
2023/10/14 03:44:24;;;;;;;5.47;1.40;;;;;;;10.11;100.00;99815.44;7391409;19;20394;-41
2023/10/14 03:46:59;;;;;;;5.97;1.50;;;;;;;10.09;100.00;99819.69;7370199;19;20411;-45
2023/10/14 03:49:32;;;;;;;6.47;1.37;;;;;;;10.04;100.00;99836.72;7390854;19;20395;-41
2023/10/14 03:52:02;;;;;;;8.83;1.23;;;;;;;10.05;100.00;99837.59;7368103;19;20391;-42
2023/10/14 03:54:41;;;;;;;13.30;1.20;;;;;;;9.95;100.00;99836.47;7390951;19;20395;-44
2023/10/14 03:57:16;;;;;;;12.13;1.77;;;;;;;9.91;100.00;99839.78;7369422;19;20403;-42
2023/10/14 03:59:48;;;;;;;12.60;1.40;;;;;;;9.88;100.00;99845.69;7395292;19;20403;-44
2023/10/14 04:02:20;;;;;;;6.60;1.50;;;;;;;9.83;100.00;99855.88;7367738;19;20424;-42
2023/10/14 04:04:57;;;;;;;11.17;1.70;;;;;;;9.89;100.00;99856.91;7393996;19;20422;-42
2023/10/14 04:07:28;;;;;;;8.33;1.50;;;;;;;9.81;100.00;99862.69;7371648;19;20426;-41
2023/10/14 04:09:59;;;;;;;6.93;1.40;;;;;;;9.77;100.00;99873.72;7390929;19;20764;-43
2023/10/14 04:12:37;;;;;;;7.33;1.20;;;;;;;9.85;100.00;99867.09;7367687;19;20439;-46
2023/10/14 04:15:33;;;;;;;14.97;1.50;;;;;;;9.79;100.00;99877.22;7391012;19;20391;-42
2023/10/14 04:18:12;;;;;;;6.40;1.50;;;;;;;9.75;100.00;99872.81;7368838;19;20427;-45
2023/10/14 04:20:46;;;;;;;6.17;1.40;;;;;;;9.77;100.00;99884.03;7366595;19;20395;-41
2023/10/14 04:26:11;;;;;;;8.27;1.57;;;;;;;9.69;100.00;99895.81;7369913;19;20394;-43
2023/10/14 04:28:53;;;;;;;9.27;1.70;;;;;;;9.66;100.00;99894.00;7390422;19;20420;-41
2023/10/14 04:31:39;;;;;;;5.30;1.30;;;;;;;9.65;100.00;99899.09;7367383;19;20419;-42
2023/10/14 04:34:10;;;;;;;6.97;1.63;;;;;;;9.65;100.00;99909.41;7389765;19;20423;-45
2023/10/14 04:36:53;;;;;;;8.10;1.33;;;;;;;9.63;100.00;99911.06;7367748;19;20934;-43
2023/10/14 04:39:31;;;;;;;11.83;1.70;;;;;;;9.59;100.00;99916.09;7389875;19;20379;-42
2023/10/14 04:44:59;;;;;;;9.30;1.77;;;;;;;9.62;100.00;99919.59;7388078;19;20470;-41
2023/10/14 04:47:38;;;;;;;8.40;1.70;;;;;;;9.54;100.00;99927.09;7366695;19;20775;-47
2023/10/14 04:50:13;;;;;;;8.47;1.30;;;;;;;9.52;100.00;99933.88;7390828;19;20398;-42
2023/10/14 04:52:48;;;;;;;8.30;1.63;;;;;;;9.50;100.00;99936.41;7366443;19;20426;-42
2023/10/14 04:55:25;;;;;;;4.57;1.30;;;;;;;9.57;100.00;99942.63;7391705;19;20387;-42
2023/10/14 05:00:41;;;;;;;6.03;1.20;;;;;;;9.55;100.00;99950.28;7390749;19;20391;-41
2023/10/14 05:03:18;;;;;;;12.50;1.77;;;;;;;9.55;100.00;99950.28;7375072;19;20487;-43
2023/10/14 05:05:50;;;;;;;9.20;1.63;;;;;;;9.56;100.00;99962.38;7375874;19;20391;-42
2023/10/14 05:08:21;;;;;;;5.77;1.50;;;;;;;9.55;100.00;99965.75;7394043;19;20403;-42
2023/10/14 05:10:53;;;;;;;9.87;1.30;;;;;;;9.52;100.00;99977.63;7374367;19;20407;-41
2023/10/14 05:13:31;;;;;;;6.60;1.20;;;;;;;9.61;100.00;99984.81;7396543;19;20498;-45
2023/10/14 05:16:15;;;;;;;7.00;1.70;;;;;;;9.65;100.00;100022.72;7376927;19;20376;-42
2023/10/14 05:18:59;;;;;;;12.53;2.80;;;;;;;9.63;100.00;100045.00;7396971;19;20408;-40
2023/10/14 05:21:42;;;;;;;8.57;1.73;;;;;;;9.65;100.00;100058.78;7371309;19;20427;-42
2023/10/14 05:24:14;;;;;;;13.33;2.00;;;;;;;9.75;100.00;100066.00;7394544;19;20431;-42
2023/10/14 05:26:46;;;;;;;12.77;1.90;;;;;;;9.78;100.00;100075.53;7375273;19;20426;-41
2023/10/14 05:29:19;;;;;;;9.40;2.40;;;;;;;9.65;100.00;100089.69;7394804;19;20391;-44
2023/10/14 05:31:50;;;;;;;10.47;1.63;;;;;;;9.65;100.00;100112.88;7372339;19;20403;-41
2023/10/14 05:34:24;;;;;;;7.10;1.43;;;;;;;9.53;100.00;100142.53;7397542;19;21020;-41
2023/10/14 05:36:55;;;;;;;7.00;2.03;;;;;;;9.51;100.00;100180.22;7373693;19;20479;-42
2023/10/14 05:39:27;;;;;;;9.40;1.90;;;;;;;9.42;100.00;100210.75;7394828;19;20455;-43
2023/10/14 05:42:03;;;;;;;8.77;2.30;;;;;;;9.38;100.00;100242.38;7373638;19;20397;-44
2023/10/14 05:44:33;;;;;;;8.43;1.43;;;;;;;9.38;100.00;100265.56;7394319;19;20401;-47
2023/10/14 05:47:02;;;;;;;4.93;1.40;;;;;;;9.30;100.00;100280.69;7375056;19;20403;-41
2023/10/14 05:49:35;;;;;;;7.83;1.70;;;;;;;9.28;100.00;100301.22;7396533;19;20405;-44
2023/10/14 05:52:06;;;;;;;5.80;1.80;;;;;;;9.29;100.00;100317.56;7372373;19;20954;-44
2023/10/14 05:54:36;;;;;;;6.97;1.33;;;;;;;9.24;100.00;100332.84;7397006;19;20393;-45
2023/10/14 05:57:08;;;;;;;9.20;1.33;;;;;;;9.28;100.00;100334.69;7374073;19;20419;-42
2023/10/14 05:59:38;;;;;;;9.90;1.67;;;;;;;9.42;100.00;100335.25;7394325;19;20420;-43
2023/10/14 06:02:12;;;;;;;8.90;2.30;;;;;;;9.46;100.00;100325.94;7372263;19;20423;-43
2023/10/14 06:04:45;;;;;;;11.63;1.93;;;;;;;9.45;100.00;100339.66;7393484;19;20927;-41
2023/10/14 06:07:16;;;;;;;12.57;1.73;;;;;;;9.54;100.00;100344.28;7372585;19;20395;-44
2023/10/14 06:09:47;;;;;;;14.27;2.20;;;;;;;9.47;100.00;100342.28;7394215;19;20395;-41
2023/10/14 06:12:18;;;;;;;17.00;2.00;;;;;;;9.44;100.00;100355.94;7372188;19;20453;-45
2023/10/14 06:14:49;;;;;;;7.20;1.73;;;;;;;9.50;100.00;100347.56;7395666;19;20408;-42
2023/10/14 06:17:18;;;;;;;12.80;1.33;;;;;;;9.39;100.00;100354.84;7372969;19;20411;-41
2023/10/14 06:19:53;;;;;;;13.90;2.00;;;;;;;9.41;100.00;100350.63;7395862;19;20388;-41
2023/10/14 06:22:22;;;;;;;11.83;2.03;;;;;;;9.35;100.00;100359.00;7369569;19;20501;-43
2023/10/14 06:24:53;;;;;;;11.80;1.40;;;;;;;9.38;100.00;100353.97;7393488;19;20399;-41
2023/10/14 06:27:24;;;;;;;12.77;2.27;;;;;;;9.34;100.00;100361.50;7372053;19;20770;-43
2023/10/14 06:29:55;;;;;;;17.83;3.13;;;;;;;9.38;100.00;100356.53;7395847;19;20412;-42
2023/10/14 06:32:24;;;;;;;14.27;1.47;;;;;;;9.40;100.00;100374.63;7370601;19;20439;-44
2023/10/14 06:35:02;;;;;;;6.03;1.40;;;;;;;9.40;100.00;100372.94;7395961;19;20390;-43
2023/10/14 06:37:40;;;;;;;8.13;1.30;;;;;;;9.44;100.00;100368.81;7372321;19;20405;-43
2023/10/14 06:40:12;;;;;;;13.17;1.83;;;;;;;9.45;100.00;100368.84;7393811;19;20774;-44
2023/10/14 06:42:43;;;;;;;9.47;2.77;;;;;;;9.49;100.00;100380.13;7370012;19;20435;-45
2023/10/14 06:45:17;;;;;;;7.87;1.27;;;;;;;9.62;100.00;100373.78;7393476;19;20472;-45
2023/10/14 06:47:50;;;;;;;8.77;1.90;;;;;;;9.72;100.00;100378.50;7372457;19;20422;-42
2023/10/14 06:50:23;;;;;;;14.27;2.40;;;;;;;9.76;100.00;100400.09;7393174;19;20399;-40
2023/10/14 06:52:58;;;;;;;8.73;1.70;;;;;;;9.80;100.00;100399.38;7369758;19;20439;-47
2023/10/14 06:55:37;;;;;;;11.90;1.90;;;;;;;9.76;100.00;100392.38;7394077;19;20386;-42
2023/10/14 06:58:07;;;;;;;6.37;0.90;;;;;;;9.60;100.00;100385.75;7372805;19;20429;-42
2023/10/14 07:00:37;;;;;;;12.13;1.50;;;;;;;9.59;100.00;100363.38;7392854;19;20400;-41
2023/10/14 07:03:12;;;;;;;6.70;1.40;;;;;;;9.57;100.00;100365.88;7371286;19;20451;-41
2023/10/14 07:05:46;;;;;;;9.00;1.07;;;;;;;9.53;100.00;100345.97;7373238;19;20384;-41
2023/10/14 07:08:19;;;;;;;12.07;1.27;;;;;;;9.51;100.00;100349.31;7392786;19;20403;-44
2023/10/14 07:10:50;;;;;;;12.73;1.60;;;;;;;9.58;100.00;100365.06;7370831;19;20391;-41
2023/10/14 07:13:20;;;;;;;13.00;2.90;;;;;;;9.71;100.00;100368.97;7383598;19;20435;-40
2023/10/14 07:15:51;;;;;;;53.83;17.13;;;;;;;9.67;100.00;100335.31;7366346;19;21011;-40
2023/10/14 07:18:23;;;;;;;19.97;5.27;;;;;;;9.59;100.00;100327.31;7385907;19;20395;-41
2023/10/14 07:21:03;;;;;;;19.00;1.87;;;;;;;9.49;100.00;100327.78;7364719;19;20403;-41
2023/10/14 07:23:34;;;;;;;13.17;2.27;;;;;;;9.42;100.00;100349.81;7388601;19;20439;-41
2023/10/14 07:26:09;;;;;;;19.37;2.57;;;;;;;9.35;100.00;100378.72;7367719;19;21208;-41
2023/10/14 07:28:42;;;;;;;14.33;4.53;;;;;;;9.43;100.00;100392.75;7389598;19;20415;-41
2023/10/14 07:31:12;;;;;;;36.83;13.90;;;;;;;9.53;100.00;100400.06;7366307;19;20431;-42
2023/10/14 07:33:43;;;;;;;15.83;4.70;;;;;;;9.58;100.00;100419.16;7386428;19;20439;-42
2023/10/14 07:36:16;;;;;;;28.87;6.00;;;;;;;9.67;100.00;100412.59;7366714;19;20949;-43
2023/10/14 07:38:45;;;;;;;22.20;4.30;;;;;;;9.72;100.00;100400.78;7380472;19;21096;-40
2023/10/14 07:41:18;;;;;;;13.60;2.47;;;;;;;9.73;100.00;100395.72;7363573;19;20502;-41
2023/10/14 07:43:48;;;;;;;16.77;2.90;;;;;;;9.78;100.00;100398.47;7387373;19;20439;-40
2023/10/14 07:46:18;;;;;;;17.07;3.93;;;;;;;9.80;100.00;100389.06;7366172;19;20427;-40
2023/10/14 07:48:48;;;;;;;17.77;6.60;;;;;;;9.85;100.00;100371.25;7389004;19;20403;-38
2023/10/14 07:51:21;;;;;;;10.97;2.27;;;;;;;9.92;100.00;100364.59;7366875;19;20419;-41
2023/10/14 07:53:56;;;;;;;7.87;2.53;;;;;;;10.02;100.00;100364.16;7387459;19;20439;-40
2023/10/14 07:56:26;;;;;;;23.40;6.77;;;;;;;10.12;100.00;100349.91;7366485;19;21046;-41
2023/10/14 07:58:56;;;;;;;10.50;1.90;;;;;;;10.13;100.00;100308.72;7389665;19;20910;-41
2023/10/14 08:01:26;;;;;;;40.57;14.10;;;;;;;10.17;100.00;100286.50;7365497;19;20419;-41
2023/10/14 08:03:57;;;;;;;42.73;15.40;;;;;;;10.26;100.00;100247.28;7387071;19;20510;-43
2023/10/14 08:06:31;;;;;;;11.23;2.20;;;;;;;10.34;100.00;100216.59;7366295;19;20847;-42
2023/10/14 08:09:02;;;;;;;14.90;1.77;;;;;;;10.43;100.00;100204.06;7387472;19;21030;-42
2023/10/14 08:11:37;;;;;;;15.23;4.70;;;;;;;10.57;100.00;100173.56;7363806;19;20417;-43
2023/10/14 08:14:06;;;;;;;25.83;2.80;;;;;;;10.63;100.00;100139.34;7383890;19;21033;-40
2023/10/14 08:16:37;;;;;;;11.97;1.67;;;;;;;10.64;100.00;100156.56;7364261;19;20427;-41
2023/10/14 08:19:10;;;;;;;18.63;6.37;;;;;;;10.59;100.00;100146.09;7380384;19;20427;-41
2023/10/14 08:21:42;;;;;;;19.60;7.10;;;;;;;10.63;100.00;100119.59;7361276;19;20442;-42
2023/10/14 08:24:14;;;;;;;9.50;3.20;;;;;;;10.64;100.00;100126.50;7383339;19;20442;-40
2023/10/14 08:26:46;;;;;;;16.97;2.87;;;;;;;10.60;100.00;100137.53;7363723;19;20430;-39
2023/10/14 08:29:19;;;;;;;27.03;7.83;;;;;;;10.76;100.00;100127.69;7384630;19;20403;-41
2023/10/14 08:31:51;;;;;;;12.80;4.77;;;;;;;10.79;100.00;100108.03;7362947;19;20423;-39
2023/10/14 08:34:23;;;;;;;13.30;1.60;;;;;;;10.71;100.00;100077.66;7385728;19;20398;-42
2023/10/14 08:36:56;;;;;;;8.93;1.40;;;;;;;10.57;100.00;100075.53;7362639;19;20491;-40
2023/10/14 08:39:31;;;;;;;13.63;1.60;;;;;;;10.27;100.00;100112.38;7387001;19;20428;-39
2023/10/14 08:42:01;;;;;;;9.80;2.13;;;;;;;10.23;100.00;100113.09;7364024;19;20439;-39
2023/10/14 08:44:32;;;;;;;12.73;1.93;;;;;;;10.36;100.00;100135.03;7386873;19;20415;-39
2023/10/14 08:47:13;;;;;;;10.10;2.10;;;;;;;10.59;100.00;100140.06;7363024;19;20522;-41
2023/10/14 08:49:44;;;;;;;8.40;1.70;;;;;;;10.60;100.00;100080.78;7384421;19;21401;-40
2023/10/14 08:52:18;;;;;;;9.20;1.67;;;;;;;10.43;100.00;100043.28;7362866;19;20969;-39
2023/10/14 08:54:49;;;;;;;14.87;2.17;;;;;;;10.37;100.00;100024.16;7385943;19;21055;-39
2023/10/14 08:57:18;;;;;;;10.77;1.50;;;;;;;10.36;100.00;100055.94;7363226;19;20419;-40
2023/10/14 08:59:49;;;;;;;11.43;2.70;;;;;;;10.28;100.00;100072.88;7384606;19;20411;-39
2023/10/14 09:02:22;;;;;;;9.07;1.70;;;;;;;10.40;100.00;100057.78;7362061;19;20538;-40
2023/10/14 09:04:52;;;;;;;10.57;1.23;;;;;;;10.46;100.00;100051.97;7387031;19;20957;-40
2023/10/14 09:07:25;;;;;;;12.30;3.43;;;;;;;10.47;100.00;100065.75;7365361;19;20415;-43
2023/10/14 09:09:55;;;;;;;10.07;2.00;;;;;;;10.56;100.00;100062.59;7386369;19;20491;-40
2023/10/14 09:12:25;;;;;;;16.77;3.13;;;;;;;10.77;100.00;100067.53;7364253;19;20455;-40
2023/10/14 09:14:55;;;;;;;10.07;2.67;;;;;;;10.91;100.00;100034.38;7386350;19;20428;-40
2023/10/14 09:17:28;;;;;;;4.87;1.37;;;;;;;10.85;100.00;100014.44;7364673;19;20411;-39
2023/10/14 09:19:58;;;;;;;12.80;1.20;;;;;;;10.89;100.00;100000.78;7387850;19;20407;-39
2023/10/14 09:22:33;;;;;;;13.20;3.13;;;;;;;11.11;100.00;100010.81;7361124;19;20465;-41
2023/10/14 09:25:04;;;;;;;11.10;2.30;;;;;;;11.28;100.00;100011.31;7385608;19;20438;-40
2023/10/14 09:27:34;;;;;;;13.47;2.40;;;;;;;11.31;100.00;100009.69;7362794;19;20482;-39
2023/10/14 09:30:03;;;;;;;15.60;3.27;;;;;;;11.29;100.00;100005.31;7385507;19;20391;-41
2023/10/14 09:32:35;;;;;;;7.57;1.20;;;;;;;11.10;100.00;100007.38;7362383;19;20450;-39
2023/10/14 09:35:05;;;;;;;9.60;1.67;;;;;;;11.14;100.00;100016.97;7387515;19;20822;-39
2023/10/14 09:37:39;;;;;;;9.17;1.67;;;;;;;11.30;100.00;100030.28;7362432;19;20446;-38
2023/10/14 09:40:13;;;;;;;11.20;2.00;;;;;;;11.56;100.00;100030.09;7382255;19;21006;-40
2023/10/14 09:42:44;;;;;;;12.37;1.57;;;;;;;11.77;100.00;100008.22;7361985;19;21186;-40
2023/10/14 09:45:13;;;;;;;14.10;2.23;;;;;;;11.96;100.00;100004.38;7386430;19;20395;-40
2023/10/14 09:47:46;;;;;;;6.70;1.13;;;;;;;11.72;100.00;99996.09;7364278;19;20965;-39
2023/10/14 09:50:17;;;;;;;18.27;1.90;;;;;;;11.87;100.00;100005.03;7391712;19;20517;-45
2023/10/14 09:52:52;;;;;;;7.03;1.23;;;;;;;12.04;100.00;100014.97;7367170;19;20515;-41
2023/10/14 09:55:22;;;;;;;13.37;2.20;;;;;;;12.33;100.00;100038.03;7394312;19;20431;-42
2023/10/14 09:57:53;;;;;;;8.77;2.07;;;;;;;12.28;100.00;100054.31;7369891;19;20439;-40
2023/10/14 10:00:24;;;;;;;7.50;1.73;;;;;;;12.21;100.00;100061.91;7390903;19;20499;-42
2023/10/14 10:02:55;;;;;;;8.43;1.40;;;;;;;11.23;100.00;100121.34;7368317;19;21006;-44
2023/10/14 10:05:35;;;;;;;8.50;1.83;;;;;;;8.86;100.00;100244.63;7393845;19;20415;-39
2023/10/14 10:08:18;;;;;;;5.60;1.13;;;;;;;8.20;100.00;100329.31;7369592;19;22074;-38
2023/10/14 10:10:51;;;;;;;5.73;1.10;;;;;;;7.45;100.00;100498.72;7369273;19;20418;-40
2023/10/14 10:13:23;;;;;;;1.80;0.40;;;;;;;6.95;100.00;100681.78;7389912;19;20451;-38
2023/10/14 10:15:53;;;;;;;4.57;1.23;;;;;;;6.82;100.00;100834.06;7371287;19;20410;-40
2023/10/14 10:18:23;;;;;;;7.80;1.43;;;;;;;6.77;100.00;100891.91;7389068;19;20428;-40
2023/10/14 10:20:56;;;;;;;5.80;0.87;;;;;;;6.81;100.00;100922.09;7368180;19;20399;-41
2023/10/14 10:23:30;;;;;;;3.40;0.80;;;;;;;6.81;100.00;100908.38;7389972;19;20431;-44
2023/10/14 10:26:03;;;;;;;14.93;3.63;;;;;;;6.87;100.00;100857.47;7368258;19;20448;-40
2023/10/14 10:28:42;;;;;;;5.20;1.73;;;;;;;6.86;100.00;100822.31;7391735;19;20433;-38
2023/10/14 10:31:15;;;;;;;15.30;4.07;;;;;;;7.01;100.00;100812.06;7368646;19;20877;-39
2023/10/14 10:33:49;;;;;;;11.20;2.93;;;;;;;7.16;100.00;100799.22;7388240;19;20451;-42
2023/10/14 10:36:24;;;;;;;11.97;3.90;;;;;;;7.23;100.00;100796.19;7368216;19;20419;-40
2023/10/14 10:38:58;;;;;;;5.03;1.20;;;;;;;7.43;100.00;100805.00;7390683;19;20406;-39
2023/10/14 10:41:29;;;;;;;8.30;1.30;;;;;;;7.68;100.00;100806.34;7368412;19;21007;-40
2023/10/14 10:44:05;;;;;;;5.77;1.37;;;;;;;7.87;100.00;100786.78;7388467;19;20445;-39
2023/10/14 10:46:40;;;;;;;15.37;4.57;;;;;;;7.96;100.00;100771.84;7368667;19;20437;-41
2023/10/14 10:49:12;;;;;;;9.97;1.77;;;;;;;8.11;100.00;100763.19;7389058;19;20414;-39
2023/10/14 10:51:51;;;;;;;9.33;2.73;;;;;;;8.39;100.00;100774.88;7367676;19;20427;-39
2023/10/14 10:54:24;;;;;;;8.93;1.70;;;;;;;8.49;100.00;100781.38;7389559;19;20427;-41
2023/10/14 10:56:54;;;;;;;4.50;1.67;;;;;;;8.50;100.00;100806.28;7367480;19;20498;-39
2023/10/14 10:59:36;;;;;;;4.50;1.53;;;;;;;8.62;100.00;100812.09;7389801;19;20474;-41
2023/10/14 11:02:09;;;;;;;30.43;11.37;;;;;;;8.71;100.00;100821.09;7367406;19;20429;-42
2023/10/14 11:04:39;;;;;;;8.90;1.23;;;;;;;8.73;100.00;100828.06;7390765;19;20486;-40
2023/10/14 11:07:10;;;;;;;8.17;2.40;;;;;;;8.96;100.00;100830.91;7367189;19;20507;-44
2023/10/14 11:09:42;;;;;;;6.87;2.37;;;;;;;9.04;100.00;100819.28;7388317;19;20411;-45
2023/10/14 11:12:14;;;;;;;32.40;11.87;;;;;;;8.97;100.00;100806.94;7365962;19;20431;-43
2023/10/14 11:14:43;;;;;;;6.90;1.80;;;;;;;8.90;100.00;100792.00;7389175;19;20405;-43
2023/10/14 11:17:13;;;;;;;14.13;5.40;;;;;;;8.87;100.00;100794.44;7366990;19;20981;-44
2023/10/14 11:19:43;;;;;;;36.17;13.50;;;;;;;8.82;100.00;100772.75;7389265;19;20447;-42
2023/10/14 11:22:14;;;;;;;14.53;6.17;;;;;;;8.84;100.00;100755.69;7362796;19;20422;-41
2023/10/14 11:24:46;;;;;;;29.33;13.23;;;;;;;8.68;100.00;100729.22;7390818;19;20425;-43
2023/10/14 11:27:16;;;;;;;28.13;11.10;;;;;;;8.49;100.00;100738.56;7367478;19;20821;-43
2023/10/14 11:29:45;;;;;;;10.57;3.50;;;;;;;8.30;100.00;100761.56;7390889;19;20499;-40
2023/10/14 11:32:15;;;;;;;26.90;9.03;;;;;;;8.17;100.00;100802.06;7365198;19;20781;-40
2023/10/14 11:34:52;;;;;;;20.23;6.17;;;;;;;7.92;100.00;100826.47;7388069;19;20480;-43
2023/10/14 11:37:21;;;;;;;27.77;9.83;;;;;;;7.83;100.00;100851.63;7366020;19;20414;-40
2023/10/14 11:39:54;;;;;;;4.00;1.43;;;;;;;7.78;100.00;100878.75;7387205;19;20410;-40
2023/10/14 11:42:24;;;;;;;3.80;0.97;;;;;;;7.84;100.00;100889.38;7365178;19;20475;-41
2023/10/14 11:44:53;;;;;;;32.20;11.00;;;;;;;8.09;100.00;100901.00;7390062;19;21021;-40
2023/10/14 11:47:23;;;;;;;17.20;5.00;;;;;;;8.19;100.00;100882.69;7366269;19;20474;-41
2023/10/14 11:49:53;;;;;;;11.83;1.70;;;;;;;8.27;100.00;100862.56;7386779;19;21377;-39
2023/10/14 11:52:24;;;;;;;15.60;2.77;;;;;;;8.37;100.00;100844.22;7365303;19;20467;-42
2023/10/14 11:54:56;;;;;;;18.03;4.20;;;;;;;8.57;100.00;100828.09;7387035;19;20422;-41
2023/10/14 11:57:30;;;;;;;11.77;4.57;;;;;;;8.81;100.00;100827.56;7365221;19;20988;-41
2023/10/14 12:00:00;;;;;;;6.80;2.10;;;;;;;9.11;100.00;100814.44;7387594;19;20419;-41